Time;durP1;ratioP1;P1;durP2;ratioP2;P2;SDS_P1;SDS_P2;PMS_P1;PMS_P2;Temp;Humidity;BMP_temperature;BMP_pressure;BME280_temperature;BME280_humidity;BME280_pressure;Samples;Min_cycle;Max_cycle;Signal;HPM_P1;HPM_P2
2021/11/30 00:02:14;;;;;;;;;13.50;11.00;;;;;3.99;68.87;101111.88;4997259;28;45662;-82
2021/11/30 00:04:39;;;;;;;;;11.25;10.75;;;;;4.53;69.15;101194.63;4997077;28;45732;-83
2021/11/30 00:07:05;;;;;;;;;12.00;10.00;;;;;4.17;69.38;101137.97;4978813;28;46614;-84
2021/11/30 00:12:52;;;;;;;;;11.00;11.00;;;;;4.68;69.38;101217.41;4996131;28;45718;-84
2021/11/30 00:15:17;;;;;;;;;10.75;10.75;;;;;4.20;69.08;101131.84;4978677;28;45684;-84
2021/11/30 00:17:43;;;;;;;;;13.00;11.50;;;;;4.16;69.15;101119.88;4996355;28;46589;-84
2021/11/30 00:20:08;;;;;;;;;10.00;9.50;;;;;4.34;69.48;101154.69;4994576;28;47491;-84
2021/11/30 00:22:34;;;;;;;;;8.25;8.25;;;;;4.43;69.30;101162.09;4996166;28;45545;-83
2021/11/30 00:25:00;;;;;;;;;10.25;8.25;;;;;4.42;69.70;101165.63;4978491;28;45895;-84
2021/11/30 00:27:25;;;;;;;;;11.25;11.00;;;;;4.75;69.32;101212.84;4978331;28;48123;-84
2021/11/30 00:29:51;;;;;;;;;11.50;10.75;;;;;4.28;69.47;101121.19;4996210;28;46188;-83
2021/11/30 00:32:16;;;;;;;;;10.75;8.00;;;;;4.55;69.60;101162.50;4996423;28;45514;-83
2021/11/30 00:34:42;;;;;;;;;11.00;8.50;;;;;4.68;69.42;101178.47;4999009;28;45662;-84
2021/11/30 00:37:07;;;;;;;;;8.25;8.00;;;;;4.30;69.57;101112.47;4988494;28;47436;-84
2021/11/30 00:42:57;;;;;;;;;8.75;7.00;;;;;4.47;69.52;101145.56;4996573;28;45521;-85
2021/11/30 00:45:25;;;;;;;;;11.00;9.50;;;;;4.87;70.08;101189.00;4997218;28;45477;-84
2021/11/30 00:47:57;;;;;;;;;11.75;11.25;;;;;4.57;69.71;101145.16;4996511;28;46461;-83
2021/11/30 00:50:26;;;;;;;;;16.50;13.00;;;;;4.91;69.97;101199.19;4996212;28;46178;-81
2021/11/30 00:52:53;;;;;;;;;13.50;11.00;;;;;4.95;70.12;101185.22;4996032;28;45658;-83
2021/11/30 00:55:19;;;;;;;;;13.50;13.00;;;;;4.61;70.18;101125.97;4996018;28;45576;-83
2021/11/30 00:57:45;;;;;;;;;14.75;11.00;;;;;4.74;70.30;101141.91;4978188;28;46385;-83
2021/11/30 01:00:18;;;;;;;;;12.75;11.00;;;;;4.63;70.30;101133.69;4978304;28;47262;-84
2021/11/30 01:02:44;;;;;;;;;11.75;11.00;;;;;5.02;70.06;101184.06;4995943;28;45666;-84
2021/11/30 01:05:12;;;;;;;;;12.75;11.25;;;;;4.92;70.24;101167.13;4996066;28;45484;-84
2021/11/30 01:07:38;;;;;;;;;11.25;10.50;;;;;4.90;70.26;101171.56;4977568;28;46757;-83
2021/11/30 01:10:06;;;;;;;;;14.75;11.25;;;;;5.05;70.32;101186.53;4995463;28;45620;-83
2021/11/30 01:12:32;;;;;;;;;12.75;11.00;;;;;4.62;70.07;101112.09;4978008;28;45858;-84
2021/11/30 01:14:58;;;;;;;;;9.00;5.75;;;;;4.95;70.40;101153.22;4993741;28;45526;-84
2021/11/30 01:17:23;;;;;;;;;14.00;11.00;;;;;5.19;70.26;101182.53;4977521;28;46328;-85
2021/11/30 01:19:49;;;;;;;;;12.00;9.00;;;;;4.74;70.01;101115.97;4996283;28;46017;-84
2021/11/30 01:22:14;;;;;;;;;10.00;8.25;;;;;5.06;70.04;101153.63;4994718;28;45764;-83
2021/11/30 01:28:02;;;;;;;;;10.75;9.75;;;;;5.12;70.16;101147.34;4995085;28;46042;-82
2021/11/30 01:30:28;;;;;;;;;11.75;11.50;;;;;4.77;70.07;101084.69;4995403;28;45675;-83
2021/11/30 01:32:53;;;;;;;;;11.00;9.00;;;;;5.08;70.34;101128.44;4995547;28;45668;-83
2021/11/30 01:35:20;;;;;;;;;13.50;11.75;;;;;5.16;70.17;101144.56;4995346;28;45636;-82
2021/11/30 01:44:24;;;;;;;;;10.00;7.75;;;;;4.73;70.27;101070.16;5000012;28;45596;-83
2021/11/30 01:47:07;;;;;;;;;11.25;8.75;;;;;5.27;70.18;101142.38;5000738;28;45608;-84
2021/11/30 01:49:34;;;;;;;;;9.00;7.50;;;;;5.01;70.12;101093.25;4995632;28;45748;-83
2021/11/30 01:52:05;;;;;;;;;11.00;9.00;;;;;5.26;70.28;101130.31;4996017;28;46333;-82
2021/11/30 01:54:30;;;;;;;;;11.00;11.00;;;;;5.27;70.10;101129.41;4977961;28;46146;-84
2021/11/30 01:56:57;;;;;;;;;13.25;11.00;;;;;5.45;69.88;101146.81;4995963;28;45575;-84
2021/11/30 01:59:22;;;;;;;;;11.00;9.50;;;;;5.48;70.28;101130.25;4995506;28;46745;-85
2021/11/30 02:01:50;;;;;;;;;13.25;11.25;;;;;5.05;70.17;101067.09;4976993;28;47558;-83
2021/11/30 02:04:16;;;;;;;;;11.25;10.50;;;;;5.36;70.14;101110.81;4994982;28;45443;-83
2021/11/30 02:06:45;;;;;;;;;14.25;9.25;;;;;5.03;70.31;101060.25;4995158;28;45666;-83
2021/11/30 02:09:10;;;;;;;;;12.50;11.00;;;;;5.30;70.32;101097.25;4994695;28;46735;-83
2021/11/30 02:11:36;;;;;;;;;12.00;11.00;;;;;5.54;70.16;101123.97;4995534;28;45635;-83
2021/11/30 02:14:02;;;;;;;;;11.25;9.50;;;;;5.54;70.09;101137.81;4977681;28;45840;-83
2021/11/30 02:16:29;;;;;;;;;10.75;9.00;;;;;4.99;70.24;101043.13;4978017;28;45727;-82
2021/11/30 02:18:59;;;;;;;;;10.75;10.00;;;;;5.57;70.44;101140.25;4993624;28;48355;-83
2021/11/30 02:21:26;;;;;;;;;11.00;9.00;;;;;5.59;70.37;101142.81;4976884;28;47268;-85
2021/11/30 02:24:00;;;;;;;;;11.50;9.00;;;;;5.36;70.68;101092.63;4994820;28;45692;-84
2021/11/30 02:26:28;;;;;;;;;11.75;8.50;;;;;5.61;70.47;101118.47;4995076;28;45639;-84
2021/11/30 02:28:56;;;;;;;;;11.00;8.75;;;;;5.60;70.41;101108.97;4978318;28;47335;-84
2021/11/30 02:31:28;;;;;;;;;13.50;9.00;;;;;5.36;70.27;101082.25;4977789;28;48313;-83
2021/11/30 02:33:54;;;;;;;;;8.00;8.00;;;;;5.58;70.80;101107.31;4977765;28;45614;-85
2021/11/30 02:36:28;;;;;;;;;12.00;11.00;;;;;5.62;70.61;101119.28;4980093;28;45684;-82
2021/11/30 02:38:55;;;;;;;;;13.50;10.50;;;;;5.34;70.16;101084.09;4980487;28;48533;-84
2021/11/30 02:41:22;;;;;;;;;13.50;12.00;;;;;5.62;70.45;101109.72;4998475;28;46303;-84
2021/11/30 02:43:47;;;;;;;;;11.75;9.00;;;;;5.52;70.14;101090.25;4997916;28;45926;-84
2021/11/30 02:46:27;;;;;;;;;13.50;11.25;;;;;5.40;70.13;101072.56;4980527;28;45660;-84
2021/11/30 02:48:53;;;;;;;;;10.50;8.00;;;;;5.04;70.11;100997.91;4979930;28;47396;-84
2021/11/30 02:51:18;;;;;;;;;12.25;11.75;;;;;5.66;70.56;101089.66;4998316;28;45529;-84
2021/11/30 02:53:44;;;;;;;;;11.75;10.75;;;;;5.19;70.23;101011.97;4998269;28;45803;-84
2021/11/30 02:56:09;;;;;;;;;9.00;8.25;;;;;5.53;70.15;101060.75;4985412;28;45958;-84
2021/11/30 02:58:35;;;;;;;;;12.25;11.50;;;;;5.33;70.54;101038.22;5014131;28;46579;-83
2021/11/30 03:01:03;;;;;;;;;11.50;11.00;;;;;5.51;70.39;101066.94;4999800;28;47013;-83
2021/11/30 03:03:28;;;;;;;;;11.00;9.50;;;;;5.08;70.10;101004.63;5017629;28;45912;-84
2021/11/30 03:05:54;;;;;;;;;11.25;8.50;;;;;5.40;70.17;101057.81;5017937;28;45699;-84
2021/11/30 03:08:19;;;;;;;;;6.50;6.25;;;;;5.48;70.53;101073.94;4999592;28;48361;-83
2021/11/30 03:14:10;;;;;;;;;14.75;12.50;;;;;5.36;70.26;101051.06;5018638;28;45493;-84
2021/11/30 03:16:36;;;;;;;;;11.25;9.50;;;;;5.67;70.65;101092.19;5023576;28;45854;-84
2021/11/30 03:19:03;;;;;;;;;12.25;10.75;;;;;5.69;70.24;101094.72;5022142;28;48443;-84
2021/11/30 03:21:29;;;;;;;;;9.25;9.00;;;;;5.34;70.50;101031.28;5005687;28;47592;-84
2021/11/30 03:23:55;;;;;;;;;9.00;8.50;;;;;5.46;70.33;101052.38;5004308;28;45734;-84
2021/11/30 03:26:20;;;;;;;;;9.00;9.00;;;;;5.25;70.37;101027.31;5001174;28;45675;-85
2021/11/30 03:28:46;;;;;;;;;11.00;8.50;;;;;5.75;70.06;101108.31;5018588;28;45390;-85
2021/11/30 03:34:04;;;;;;;;;12.75;10.25;;;;;5.46;70.55;101070.56;5019550;28;45602;-85
2021/11/30 03:36:30;;;;;;;;;11.75;11.00;;;;;5.73;70.40;101120.50;5018036;28;45504;-86
2021/11/30 03:38:57;;;;;;;;;11.75;9.00;;;;;5.63;70.72;101092.38;5016002;28;46565;-84
2021/11/30 03:41:23;;;;;;;;;11.00;11.00;;;;;5.28;70.28;101047.97;5015814;28;48289;-84
2021/11/30 03:43:49;;;;;;;;;9.00;6.25;;;;;5.77;70.59;101142.88;4998484;28;45830;-85
2021/11/30 03:46:15;;;;;;;;;13.00;11.75;;;;;5.77;70.53;101135.09;5016881;28;45679;-83
2021/11/30 03:48:40;;;;;;;;;12.50;11.00;;;;;5.36;70.13;101069.25;5015175;28;47450;-83
2021/11/30 03:51:06;;;;;;;;;9.25;9.00;;;;;5.21;70.23;101037.91;4998603;28;47048;-83
2021/11/30 03:53:31;;;;;;;;;13.25;10.75;;;;;5.28;70.57;101036.75;4999207;28;45666;-83
2021/11/30 03:59:58;;;;;;;;;11.00;9.00;;;;;5.68;70.73;101106.88;5001641;28;45541;-85
2021/11/30 04:02:23;;;;;;;;;11.00;9.50;;;;;5.87;70.36;101127.75;4979502;28;48276;-84
2021/11/30 04:04:50;;;;;;;;;12.00;11.00;;;;;5.29;70.21;101017.66;4979177;28;45529;-86
2021/11/30 04:07:16;;;;;;;;;17.00;14.00;;;;;5.87;70.61;101120.81;4997605;28;45787;-86
2021/11/30 04:09:41;;;;;;;;;4.00;4.00;;;;;5.51;70.45;101072.94;4996680;28;47642;-85
2021/11/30 04:12:08;;;;;;;;;11.50;11.00;;;;;5.89;70.54;101121.56;4998500;28;45883;-83
2021/11/30 04:14:34;;;;;;;;;12.50;12.25;;;;;5.84;70.75;101102.69;4981014;28;46009;-85
2021/11/30 04:16:59;;;;;;;;;11.75;11.00;;;;;5.91;70.43;101126.72;4999504;28;45555;-84
2021/11/30 04:19:25;;;;;;;;;10.50;10.25;;;;;5.67;70.89;101084.38;4981407;28;47489;-85
2021/11/30 04:21:51;;;;;;;;;11.00;9.25;;;;;5.64;70.82;101084.53;4981980;28;47325;-83
2021/11/30 04:24:17;;;;;;;;;15.00;10.25;;;;;5.92;70.61;101125.81;4998128;28;45536;-85
2021/11/30 04:26:43;;;;;;;;;13.25;12.25;;;;;5.71;70.53;101085.13;4980854;28;45571;-84
2021/11/30 04:29:09;;;;;;;;;10.50;10.00;;;;;5.72;70.57;101074.63;5002141;28;46265;-85
2021/11/30 04:31:35;;;;;;;;;14.00;9.75;;;;;5.69;70.93;101076.53;4981336;28;48587;-84
2021/11/30 04:34:03;;;;;;;;;14.00;9.25;;;;;5.82;70.91;101088.94;4995498;28;45927;-83
2021/11/30 04:36:28;;;;;;;;;11.25;10.25;;;;;5.42;70.94;101016.19;4996929;28;45660;-83
2021/11/30 04:38:56;;;;;;;;;11.00;10.50;;;;;5.50;70.80;101034.91;4978539;28;47429;-84
2021/11/30 04:44:59;;;;;;;;;9.00;8.25;;;;;5.52;71.12;101035.66;4996719;28;45682;-84
2021/11/30 04:47:28;;;;;;;;;11.25;8.00;;;;;5.59;71.32;101052.69;4995434;28;45726;-83
2021/11/30 04:49:57;;;;;;;;;12.25;11.00;;;;;5.82;71.62;101083.75;4998966;28;46415;-83
2021/11/30 04:52:23;;;;;;;;;9.00;8.50;;;;;5.46;71.23;101028.13;5000679;28;45696;-82
2021/11/30 04:54:48;;;;;;;;;11.75;10.00;;;;;5.41;71.59;101022.28;5001644;28;45462;-83
2021/11/30 04:57:13;;;;;;;;;9.00;4.75;;;;;5.45;71.79;101039.47;5001184;28;45550;-82
2021/11/30 04:59:39;;;;;;;;;14.75;13.00;;;;;5.33;71.48;101016.59;5011179;28;46429;-82
2021/11/30 05:02:04;;;;;;;;;12.75;11.00;;;;;5.57;72.00;101074.44;4998842;28;48014;-81
2021/11/30 05:04:30;;;;;;;;;10.00;8.50;;;;;5.45;71.93;101057.66;5016460;28;45642;-82
2021/11/30 05:06:57;;;;;;;;;12.25;11.25;;;;;5.41;72.06;101053.47;5015873;28;45686;-84
2021/11/30 05:09:22;;;;;;;;;14.00;12.75;;;;;5.53;72.10;101065.94;5015836;28;45776;-83
2021/11/30 05:11:48;;;;;;;;;13.75;9.50;;;;;5.58;72.04;101068.34;4997668;28;48330;-84
2021/11/30 05:14:13;;;;;;;;;11.25;10.75;;;;;5.46;71.95;101070.56;5015129;28;45637;-84
2021/11/30 05:16:39;;;;;;;;;12.25;11.75;;;;;5.49;72.98;101080.00;4997390;28;45679;-84
2021/11/30 05:19:06;;;;;;;;;12.00;11.00;;;;;5.22;72.48;101024.84;4996536;28;47533;-83
2021/11/30 05:21:31;;;;;;;;;16.50;11.75;;;;;5.34;72.64;101055.50;5015139;28;46562;-83
2021/11/30 05:24:01;;;;;;;;;4.00;4.00;;;;;5.68;73.37;101103.41;5015590;28;45619;-83
2021/11/30 05:29:49;;;;;;;;;11.50;9.00;;;;;5.52;72.75;101059.06;5015845;28;46040;-85
2021/11/30 05:32:15;;;;;;;;;8.50;8.25;;;;;5.21;73.20;101006.72;5015753;28;46248;-84
2021/11/30 05:34:41;;;;;;;;;12.75;8.00;;;;;5.41;72.92;101038.72;5015759;28;45630;-83
2021/11/30 05:37:06;;;;;;;;;12.00;8.00;;;;;5.54;73.25;101061.59;5015711;28;45581;-82
2021/11/30 05:39:31;;;;;;;;;11.00;9.75;;;;;5.51;72.98;101054.75;5016001;28;45703;-83
2021/11/30 05:41:57;;;;;;;;;11.00;9.50;;;;;5.55;73.02;101060.69;4997318;28;47536;-82
2021/11/30 05:44:22;;;;;;;;;15.25;11.25;;;;;5.48;72.70;101036.72;4997540;28;45846;-82
2021/11/30 05:46:49;;;;;;;;;8.50;8.00;;;;;5.73;73.17;101078.06;5015859;28;45653;-83
2021/11/30 05:49:19;;;;;;;;;8.75;8.00;;;;;5.40;73.21;101018.00;5015587;28;45648;-82
2021/11/30 05:51:45;;;;;;;;;8.25;6.25;;;;;5.64;73.22;101055.94;4997568;28;47242;-83
2021/11/30 05:54:10;;;;;;;;;11.00;9.25;;;;;5.80;72.98;101080.34;4996535;28;45790;-84
2021/11/30 06:00:01;;;;;;;;;8.00;7.00;;;;;5.57;72.71;101019.88;5003076;28;45636;-85
2021/11/30 06:02:30;;;;;;;;;8.00;7.50;;;;;5.80;72.93;101053.50;4995174;28;45700;-83
2021/11/30 06:04:55;;;;;;;;;8.25;7.50;;;;;5.65;73.40;101029.03;4994923;28;45558;-84
2021/11/30 06:07:21;;;;;;;;;11.75;8.00;;;;;5.85;72.92;101073.19;4995230;28;45616;-83
2021/11/30 06:09:46;;;;;;;;;9.75;9.25;;;;;6.03;72.97;101081.97;4977920;28;47427;-86
2021/11/30 06:12:12;;;;;;;;;8.75;6.50;;;;;5.92;73.23;101072.97;4981296;28;47214;-85
2021/11/30 06:14:38;;;;;;;;;6.00;6.00;;;;;6.06;73.58;101099.19;4981753;28;45571;-83
2021/11/30 06:17:03;;;;;;;;;8.50;7.00;;;;;5.84;73.45;101055.91;5000550;28;45803;-84
2021/11/30 06:19:29;;;;;;;;;8.75;8.00;;;;;6.10;73.68;101098.97;4983105;28;48589;-83
2021/11/30 06:21:55;;;;;;;;;9.00;9.00;;;;;6.10;73.87;101091.16;4982474;28;47677;-85
2021/11/30 06:24:21;;;;;;;;;12.75;9.00;;;;;6.11;74.07;101087.66;4999071;28;45745;-86
2021/11/30 06:30:09;;;;;;;;;8.25;8.25;;;;;6.04;73.83;101073.25;5005494;28;45477;-84
2021/11/30 06:32:35;;;;;;;;;8.50;6.00;;;;;5.59;73.66;100984.28;4987653;28;47491;-85
2021/11/30 06:35:02;;;;;;;;;10.00;9.00;;;;;5.66;73.50;100986.56;4987679;28;46241;-84
2021/11/30 06:37:27;;;;;;;;;10.00;8.50;;;;;5.77;73.47;101012.91;4985239;28;45660;-85
2021/11/30 06:45:59;;;;;;;;;8.50;6.50;;;;;6.24;73.80;101080.16;5002104;28;45850;-86
2021/11/30 06:48:25;;;;;;;;;7.50;7.50;;;;;6.37;73.75;101091.66;4983069;28;46122;-83
2021/11/30 06:50:51;;;;;;;;;9.00;8.50;;;;;6.24;73.84;101046.34;4999668;28;45707;-85
2021/11/30 06:53:18;;;;;;;;;7.00;7.00;;;;;6.24;73.46;101051.53;4999043;28;45710;-88
2021/11/30 06:55:44;;;;;;;;;8.50;8.25;;;;;6.18;73.25;101033.59;4999293;28;45803;-85
2021/11/30 06:58:09;;;;;;;;;9.00;8.00;;;;;6.46;73.53;101080.00;5002173;28;45486;-88
2021/11/30 07:00:35;;;;;;;;;6.00;5.00;;;;;6.48;73.56;101083.41;4999561;28;46624;-84
2021/11/30 07:03:00;;;;;;;;;8.00;8.00;;;;;6.30;73.73;101030.44;5013885;28;45813;-85
2021/11/30 07:05:33;;;;;;;;;9.75;9.25;;;;;6.53;73.58;101078.81;5003073;28;45579;-85
2021/11/30 07:11:01;;;;;;;;;11.75;9.75;;;;;6.29;73.79;101033.97;5020020;28;45669;-86
2021/11/30 07:13:30;;;;;;;;;5.25;4.00;;;;;6.23;73.64;101026.44;5019091;28;46346;-85
2021/11/30 07:16:04;;;;;;;;;9.00;8.75;;;;;6.58;73.60;101077.69;5020324;28;45510;-85
2021/11/30 07:18:32;;;;;;;;;9.50;9.00;;;;;6.20;73.59;101009.22;5019597;28;45653;-85
2021/11/30 07:20:58;;;;;;;;;6.50;6.50;;;;;6.62;73.68;101091.41;5000847;28;47574;-85
2021/11/30 07:23:24;;;;;;;;;10.50;9.50;;;;;6.56;73.63;101078.66;4999047;28;46150;-86
2021/11/30 07:25:52;;;;;;;;;9.00;8.25;;;;;6.41;73.73;101051.59;4999854;28;46044;-85
2021/11/30 07:28:28;;;;;;;;;10.00;9.25;;;;;6.65;73.72;101088.63;4996847;28;46041;-84
2021/11/30 07:30:55;;;;;;;;;12.00;10.00;;;;;6.54;73.61;101063.13;5016617;28;46559;-76
2021/11/30 07:33:21;;;;;;;;;6.50;4.50;;;;;6.62;73.89;101074.03;5015797;28;47001;-75
2021/11/30 07:35:46;;;;;;;;;10.75;10.00;;;;;6.70;73.78;101082.28;5015794;28;46022;-74
2021/11/30 07:38:12;;;;;;;;;11.50;8.75;;;;;6.74;73.59;101096.03;5016242;28;45528;-77
2021/11/30 07:40:37;;;;;;;;;13.00;9.00;;;;;6.66;73.86;101078.16;5016108;28;45884;-76
2021/11/30 07:43:03;;;;;;;;;13.00;11.00;;;;;6.78;73.54;101083.69;5015403;28;47144;-75
2021/11/30 07:45:28;;;;;;;;;13.00;10.00;;;;;6.77;73.61;101084.63;5015618;28;45634;-76
2021/11/30 07:47:53;;;;;;;;;12.25;9.75;;;;;6.86;73.70;101087.59;4998210;28;45953;-75
2021/11/30 07:50:19;;;;;;;;;10.00;9.25;;;;;6.90;73.53;101096.13;5015844;28;45755;-77
2021/11/30 07:52:45;;;;;;;;;16.00;15.00;;;;;6.92;73.60;101102.94;5015563;28;47180;-77
2021/11/30 07:55:14;;;;;;;;;12.50;9.50;;;;;6.93;73.72;101095.97;5015822;28;45762;-76
2021/11/30 08:01:01;;;;;;;;;9.25;9.25;;;;;6.95;73.65;101083.75;5003029;28;45657;-74
2021/11/30 08:03:27;;;;;;;;;11.00;10.00;;;;;6.96;73.91;101098.47;4996276;28;46042;-76
2021/11/30 08:05:52;;;;;;;;;14.00;12.75;;;;;6.95;73.75;101104.56;4996646;28;45592;-75
2021/11/30 08:08:18;;;;;;;;;12.75;12.25;;;;;6.97;73.57;101116.59;4997215;28;45617;-74
2021/11/30 08:10:43;;;;;;;;;13.50;12.00;;;;;6.97;73.81;101121.81;4996541;28;46236;-75
2021/11/30 08:13:09;;;;;;;;;12.75;12.75;;;;;6.91;73.82;101110.84;4995494;28;47233;-76
2021/11/30 08:15:36;;;;;;;;;17.50;13.00;;;;;6.94;73.67;101102.88;4995488;28;45610;-76
2021/11/30 08:18:02;;;;;;;;;14.50;14.00;;;;;6.97;73.52;101106.16;4994427;28;45520;-75
2021/11/30 08:20:28;;;;;;;;;12.75;12.25;;;;;6.99;73.73;101122.59;4995477;28;47187;-75
2021/11/30 08:22:53;;;;;;;;;18.25;13.75;;;;;7.00;73.67;101133.84;4995543;28;45569;-75
2021/11/30 08:25:19;;;;;;;;;15.00;13.25;;;;;6.97;73.61;101107.94;4995617;28;45577;-76
2021/11/30 08:31:06;;;;;;;;;11.00;9.25;;;;;6.98;73.45;101117.44;4995344;28;45550;-76
2021/11/30 08:33:31;;;;;;;;;17.75;14.50;;;;;7.00;73.92;101116.47;4995287;28;45920;-75
2021/11/30 08:35:57;;;;;;;;;19.00;17.00;;;;;7.03;73.72;101118.91;4995518;28;45525;-75
2021/11/30 08:38:24;;;;;;;;;14.50;14.00;;;;;7.01;73.45;101110.34;4995366;28;45582;-75
2021/11/30 08:40:49;;;;;;;;;13.50;12.25;;;;;7.08;73.55;101109.09;4995162;28;45602;-74
2021/11/30 08:46:37;;;;;;;;;16.00;13.25;;;;;7.12;73.60;101112.44;4994700;28;45452;-75
2021/11/30 08:49:03;;;;;;;;;17.25;16.00;;;;;7.14;73.50;101113.19;4994942;28;45923;-76
2021/11/30 08:51:29;;;;;;;;;14.75;13.50;;;;;7.15;73.66;101114.88;4994745;28;46558;-75
2021/11/30 08:53:54;;;;;;;;;17.50;13.25;;;;;7.15;73.49;101109.66;4994305;28;47456;-75
2021/11/30 08:56:20;;;;;;;;;14.25;13.50;;;;;7.17;73.80;101110.44;4994897;28;46287;-75
2021/11/30 08:58:45;;;;;;;;;19.25;14.00;;;;;7.21;73.57;101111.13;4995010;28;45642;-75
2021/11/30 09:01:11;;;;;;;;;13.75;13.00;;;;;7.23;73.65;101120.56;5006926;28;46423;-74
2021/11/30 09:03:36;;;;;;;;;17.75;13.00;;;;;7.19;73.58;101111.19;5014570;28;46257;-76
2021/11/30 09:06:02;;;;;;;;;20.75;19.50;;;;;7.25;73.72;101091.81;5014453;28;45643;-75
2021/11/30 09:08:27;;;;;;;;;14.25;14.00;;;;;7.24;73.52;101095.31;5014838;28;45666;-75
2021/11/30 09:10:53;;;;;;;;;18.25;16.00;;;;;7.28;73.76;101099.47;5014438;28;47338;-76
2021/11/30 09:16:39;;;;;;;;;14.50;13.25;;;;;7.32;73.76;101116.66;5014436;28;45848;-74
2021/11/30 09:19:07;;;;;;;;;18.50;16.00;;;;;7.29;73.90;101102.00;5014576;28;45987;-75
2021/11/30 09:21:33;;;;;;;;;21.50;19.75;;;;;7.36;73.79;101126.00;5014336;28;46445;-76
2021/11/30 09:23:58;;;;;;;;;20.00;16.25;;;;;7.36;73.88;101111.19;5013877;28;46840;-74
2021/11/30 09:26:24;;;;;;;;;19.00;17.25;;;;;7.39;73.71;101112.81;5014395;28;45555;-76
2021/11/30 09:28:50;;;;;;;;;20.75;15.00;;;;;7.42;73.76;101117.88;5014604;28;45520;-74
2021/11/30 09:31:16;;;;;;;;;22.25;19.75;;;;;7.43;73.84;101122.19;5014376;28;46403;-76
2021/11/30 09:33:43;;;;;;;;;22.75;17.00;;;;;7.47;73.94;101118.50;5013771;28;46142;-74
2021/11/30 09:36:10;;;;;;;;;17.00;16.00;;;;;7.44;73.90;101116.06;5014527;28;45511;-75
2021/11/30 09:38:37;;;;;;;;;11.00;9.00;;;;;7.49;73.91;101109.69;5014449;28;45560;-76
2021/11/30 09:41:03;;;;;;;;;22.50;19.00;;;;;7.44;73.86;101103.00;5014221;28;47330;-74
2021/11/30 09:46:50;;;;;;;;;18.00;14.75;;;;;7.57;74.01;101130.13;5013881;28;45644;-74
2021/11/30 09:49:17;;;;;;;;;17.75;15.00;;;;;7.60;73.93;101106.53;5014004;28;45725;-74
2021/11/30 09:51:43;;;;;;;;;19.25;14.00;;;;;7.56;74.06;101098.00;5014011;28;45776;-75
2021/11/30 09:54:08;;;;;;;;;21.75;15.00;;;;;7.70;74.18;101117.34;5014025;28;46009;-76
2021/11/30 09:56:36;;;;;;;;;19.00;18.00;;;;;7.70;74.07;101112.97;5014610;28;45682;-76
2021/11/30 09:59:02;;;;;;;;;17.50;15.00;;;;;7.79;74.01;101124.69;5014559;28;45796;-76
2021/11/30 10:01:28;;;;;;;;;14.25;13.00;;;;;7.80;74.22;101106.34;5013800;28;46549;-75
2021/11/30 10:03:53;;;;;;;;;17.75;14.75;;;;;7.79;74.07;101099.44;4995775;28;48180;-74
2021/11/30 10:06:19;;;;;;;;;14.00;11.00;;;;;7.87;74.16;101107.72;5013860;28;45637;-76
2021/11/30 10:08:47;;;;;;;;;15.50;15.00;;;;;7.91;74.13;101096.22;5014081;28;45514;-77
2021/11/30 10:18:14;;;;;;;;;12.50;12.50;;;;;8.04;74.31;101093.81;5013786;28;45554;-75
2021/11/30 10:20:40;;;;;;;;;16.50;14.00;;;;;8.06;74.43;101099.78;5013844;28;45867;-76
2021/11/30 10:23:05;;;;;;;;;17.75;14.50;;;;;8.06;74.28;101096.31;5013330;28;46515;-76
2021/11/30 10:25:35;;;;;;;;;13.25;11.00;;;;;8.02;74.34;101080.00;5013501;28;47612;-75
2021/11/30 10:28:04;;;;;;;;;15.00;14.00;;;;;8.11;74.16;101084.72;5013370;28;45695;-76
2021/11/30 10:30:32;;;;;;;;;18.25;17.25;;;;;8.08;74.25;101077.06;5013640;28;45598;-76
2021/11/30 10:33:03;;;;;;;;;16.25;15.25;;;;;8.18;74.28;101091.28;5013143;28;46436;-76
2021/11/30 10:35:30;;;;;;;;;15.50;13.75;;;;;8.24;74.24;101096.19;5013417;28;45880;-75
2021/11/30 10:37:57;;;;;;;;;16.00;13.75;;;;;8.30;74.36;101098.50;5013442;28;45910;-77
2021/11/30 10:40:28;;;;;;;;;12.75;10.75;;;;;8.30;74.14;101113.31;5013582;28;45743;-75
2021/11/30 10:43:03;;;;;;;;;13.25;11.25;;;;;8.33;74.41;101100.94;5013152;28;47545;-76
2021/11/30 10:45:37;;;;;;;;;13.75;10.00;;;;;8.36;74.20;101103.41;4996074;28;45981;-73
2021/11/30 10:48:26;;;;;;;;;10.25;9.00;;;;;8.38;74.27;101104.16;4996634;28;45603;-75
2021/11/30 10:50:56;;;;;;;;;16.50;11.25;;;;;8.42;74.31;101087.38;5015268;28;45642;-75
2021/11/30 10:53:22;;;;;;;;;16.50;11.75;;;;;8.45;74.08;101099.44;5014545;28;46613;-76
2021/11/30 10:55:56;;;;;;;;;11.75;11.00;;;;;8.48;74.18;101083.59;5015152;28;46154;-76
2021/11/30 10:58:25;;;;;;;;;11.50;9.75;;;;;8.52;74.22;101079.06;5016651;28;45701;-75
2021/11/30 11:00:52;;;;;;;;;11.00;10.00;;;;;8.58;74.22;101082.19;5016316;28;45820;-75
2021/11/30 11:03:21;;;;;;;;;8.75;7.00;;;;;8.61;73.92;101083.78;5016080;28;45574;-76
2021/11/30 11:06:28;;;;;;;;;12.25;10.00;;;;;8.60;73.98;101066.41;5016424;28;46160;-76
2021/11/30 11:08:50;;;;;;;;;10.75;9.00;;;;;8.66;74.07;101071.31;5016123;28;45618;-76
2021/11/30 11:11:24;;;;;;;;;3.50;2.75;;;;;8.69;74.23;101071.16;5016063;28;45597;-77
2021/11/30 11:13:50;;;;;;;;;10.50;10.00;;;;;8.73;74.05;101068.28;5015574;28;46516;-77
2021/11/30 11:16:28;;;;;;;;;10.00;10.00;;;;;8.68;74.04;101053.78;5016070;28;46423;-77
2021/11/30 11:18:56;;;;;;;;;9.25;7.75;;;;;8.76;74.02;101062.88;5015943;28;45810;-76
2021/11/30 11:21:40;;;;;;;;;13.75;8.50;;;;;8.82;74.17;101052.06;5015820;28;45538;-77
2021/11/30 11:24:14;;;;;;;;;10.75;8.75;;;;;8.84;73.92;101052.00;5015674;28;45638;-77
2021/11/30 11:29:35;;;;;;;;;8.50;8.50;;;;;8.94;74.09;101052.31;5015626;28;45783;-76
2021/11/30 11:32:07;;;;;;;;;11.50;9.00;;;;;8.93;74.24;101041.00;5015735;28;45631;-76
2021/11/30 11:34:35;;;;;;;;;11.75;6.00;;;;;8.99;74.16;101038.03;4997486;28;47751;-77
2021/11/30 11:37:05;;;;;;;;;15.50;12.00;;;;;9.00;74.10;101046.72;5015781;28;46141;-77
2021/11/30 11:39:31;;;;;;;;;17.75;12.50;;;;;9.01;74.26;101040.56;5015618;28;45581;-77
2021/11/30 11:45:18;;;;;;;;;10.50;9.75;;;;;9.02;74.07;101029.16;5016365;28;46173;-75
2021/11/30 11:47:44;;;;;;;;;11.50;10.25;;;;;9.05;74.16;101029.00;4998432;28;46595;-77
2021/11/30 11:50:14;;;;;;;;;11.00;8.00;;;;;9.05;74.03;101026.41;5016336;28;45752;-77
2021/11/30 11:52:41;;;;;;;;;9.50;8.25;;;;;9.10;73.97;101021.75;5015324;28;45760;-75
2021/11/30 11:55:29;;;;;;;;;9.00;6.75;;;;;9.17;73.85;101020.47;5015807;28;46332;-76
2021/11/30 12:01:22;;;;;;;;;8.75;7.75;;;;;9.21;73.97;101003.66;5015063;28;45896;-77
2021/11/30 12:04:03;;;;;;;;;5.50;5.00;;;;;9.25;73.92;101003.38;5014947;28;45787;-76
2021/11/30 12:06:32;;;;;;;;;9.25;9.00;;;;;9.33;74.04;101015.16;5015152;28;46519;-76
2021/11/30 12:09:42;;;;;;;;;8.50;7.00;;;;;9.34;74.11;101022.09;4996875;28;47093;-76
2021/11/30 12:12:13;;;;;;;;;14.50;7.75;;;;;9.31;74.18;100999.56;5011335;28;45970;-76
2021/11/30 12:14:41;;;;;;;;;9.00;8.00;;;;;9.25;74.09;101002.53;5015868;28;45773;-77
2021/11/30 12:17:23;;;;;;;;;6.50;6.50;;;;;9.33;74.17;101012.56;5015052;28;47242;-77
2021/11/30 12:20:07;;;;;;;;;10.00;8.25;;;;;9.35;74.22;101005.44;5014313;28;46188;-77
2021/11/30 12:22:59;;;;;;;;;11.00;7.50;;;;;9.39;73.97;101009.59;5018018;28;45654;-77
2021/11/30 12:25:46;;;;;;;;;9.00;9.00;;;;;9.38;74.25;100993.03;5018318;28;45806;-77
2021/11/30 12:28:35;;;;;;;;;7.25;7.25;;;;;9.40;74.23;100995.53;5018689;28;45755;-76
2021/11/30 12:31:02;;;;;;;;;8.00;7.50;;;;;9.42;74.13;100993.69;5014477;28;47010;-77
2021/11/30 12:33:38;;;;;;;;;8.00;6.50;;;;;9.40;74.01;100982.47;5016118;28;45514;-76
2021/11/30 12:36:13;;;;;;;;;12.00;10.75;;;;;9.48;74.00;101002.03;5016051;28;45736;-76
2021/11/30 12:38:51;;;;;;;;;9.75;7.75;;;;;9.48;74.02;101004.63;5014226;28;46733;-76
2021/11/30 12:41:22;;;;;;;;;12.25;8.00;;;;;9.47;74.04;100989.88;5014360;28;46231;-76
2021/11/30 12:43:51;;;;;;;;;6.00;5.75;;;;;9.46;74.30;101003.88;5013793;28;45621;-77
2021/11/30 12:46:31;;;;;;;;;7.50;5.25;;;;;9.46;74.11;100985.56;4996645;28;45834;-77
2021/11/30 12:48:57;;;;;;;;;10.50;9.00;;;;;9.47;74.20;100986.41;5014451;28;47290;-76
2021/11/30 12:51:34;;;;;;;;;8.00;7.50;;;;;9.47;74.22;100987.25;5014468;28;46340;-77